createdAt,value
2023-04-16T00:01:40.962Z,80.98
2023-04-16T00:04:09.262Z,81.32
2023-04-16T00:06:37.257Z,81.67
2023-04-16T00:09:05.442Z,81.76
2023-04-16T00:11:33.440Z,82.02
2023-04-16T00:14:01.604Z,82.00
2023-04-16T00:16:29.648Z,82.20
2023-04-16T00:18:57.571Z,82.00
2023-04-16T00:21:26.501Z,82.09
2023-04-16T00:23:54.308Z,82.17
2023-04-16T00:26:22.324Z,82.09
2023-04-16T00:28:50.409Z,81.94
2023-04-16T00:31:18.461Z,81.90
2023-04-16T00:33:46.350Z,81.82
2023-04-16T00:36:14.270Z,81.95
2023-04-16T00:38:42.024Z,81.99
2023-04-16T00:41:09.834Z,82.02
2023-04-16T00:43:38.214Z,81.85
2023-04-16T00:46:07.479Z,81.99
2023-04-16T00:48:38.508Z,81.85
2023-04-16T00:51:08.843Z,81.84
2023-04-16T00:53:36.818Z,81.92
2023-04-16T00:56:07.652Z,81.76
2023-04-16T00:58:36.238Z,81.78
2023-04-16T01:01:04.542Z,81.76
2023-04-16T01:03:40.351Z,81.71
2023-04-16T01:06:08.290Z,81.70
2023-04-16T01:08:36.384Z,81.86
2023-04-16T01:11:04.685Z,81.87
2023-04-16T01:13:33.886Z,81.94
2023-04-16T01:16:01.792Z,82.09
2023-04-16T01:18:29.567Z,82.46
2023-04-16T01:20:57.376Z,82.43
2023-04-16T01:23:25.203Z,82.50
2023-04-16T01:25:52.975Z,82.62
2023-04-16T01:28:21.334Z,82.76
2023-04-16T01:30:49.400Z,82.60
2023-04-16T01:33:19.274Z,82.67
2023-04-16T01:35:47.139Z,82.58
2023-04-16T01:38:14.962Z,82.45
2023-04-16T01:40:43.108Z,82.24
2023-04-16T01:43:10.947Z,82.30
2023-04-16T01:45:38.726Z,82.34
2023-04-16T01:48:07.157Z,82.34
2023-04-16T01:50:35.196Z,82.39
2023-04-16T01:53:05.245Z,82.15
2023-04-16T01:55:34.286Z,82.10
2023-04-16T01:58:02.068Z,82.21
2023-04-16T02:00:29.902Z,82.03
2023-04-16T02:02:57.864Z,81.68
2023-04-16T02:05:26.052Z,81.43
2023-04-16T02:07:53.886Z,81.45
2023-04-16T02:10:22.307Z,81.58
2023-04-16T02:12:50.225Z,81.58
2023-04-16T02:15:18.051Z,81.83
2023-04-16T02:17:46.857Z,81.94
2023-04-16T02:20:14.811Z,82.17
2023-04-16T02:22:43.491Z,82.19
2023-04-16T02:25:11.359Z,82.32
2023-04-16T02:27:39.225Z,82.63
2023-04-16T02:30:08.050Z,82.79
2023-04-16T02:32:35.952Z,82.99
2023-04-16T02:35:04.321Z,83.25
2023-04-16T02:37:32.131Z,83.46
2023-04-16T02:39:59.885Z,83.69
2023-04-16T02:42:28.680Z,83.80
2023-04-16T02:44:56.569Z,83.81
2023-04-16T02:47:24.382Z,83.81
2023-04-16T02:49:52.291Z,83.91
2023-04-16T02:52:20.052Z,84.11
2023-04-16T02:54:47.934Z,84.30
2023-04-16T02:57:15.682Z,84.55
2023-04-16T02:59:43.523Z,83.95
2023-04-16T03:02:11.496Z,84.14
2023-04-16T03:04:39.626Z,84.09
2023-04-16T03:07:09.291Z,84.06
2023-04-16T03:09:37.111Z,83.61
2023-04-16T03:12:05.328Z,83.52
2023-04-16T03:14:33.623Z,83.10
2023-04-16T03:17:01.395Z,82.53
2023-04-16T03:19:29.153Z,82.67
2023-04-16T03:21:56.937Z,82.69
2023-04-16T03:24:24.721Z,82.77
2023-04-16T03:26:52.469Z,82.86
2023-04-16T03:29:20.557Z,82.63
2023-04-16T03:31:48.333Z,82.62
2023-04-16T03:34:16.128Z,82.72
2023-04-16T03:36:44.040Z,82.62
2023-04-16T03:39:11.992Z,82.61
2023-04-16T03:41:39.872Z,82.72
2023-04-16T03:44:07.662Z,82.88
2023-04-16T03:46:35.729Z,82.88
2023-04-16T03:49:03.520Z,82.88
2023-04-16T03:51:31.360Z,83.01
2023-04-16T03:53:59.183Z,83.06
2023-04-16T03:56:26.933Z,83.14
2023-04-16T03:58:54.744Z,83.28
2023-04-16T04:01:22.577Z,83.28
2023-04-16T04:03:50.597Z,83.29
2023-04-16T04:06:18.536Z,83.39
2023-04-16T04:08:46.356Z,83.40
2023-04-16T04:11:14.229Z,83.39
2023-04-16T04:13:42.005Z,83.31
2023-04-16T04:16:09.803Z,83.24
2023-04-16T04:18:37.888Z,83.27
2023-04-16T04:21:09.255Z,83.03
2023-04-16T04:23:37.414Z,83.21
2023-04-16T04:26:05.939Z,83.26
2023-04-16T04:28:35.300Z,83.22
2023-04-16T04:31:03.158Z,83.27
2023-04-16T04:33:30.973Z,83.35
2023-04-16T04:35:58.812Z,83.31
2023-04-16T04:38:26.627Z,83.35
2023-04-16T04:40:54.497Z,83.38
2023-04-16T04:43:22.414Z,83.34
2023-04-16T04:45:50.531Z,83.34
2023-04-16T04:48:18.290Z,83.41
2023-04-16T04:50:46.606Z,83.48
2023-04-16T04:53:15.223Z,83.52
2023-04-16T04:55:43.111Z,83.56
2023-04-16T04:58:11.317Z,83.54
2023-04-16T05:00:39.183Z,83.34
2023-04-16T05:03:11.963Z,83.41
2023-04-16T05:05:41.163Z,83.53
2023-04-16T05:08:09.122Z,83.49
2023-04-16T05:10:36.934Z,83.41
2023-04-16T05:13:04.783Z,83.53
2023-04-16T05:15:32.542Z,83.60
2023-04-16T05:18:00.692Z,83.53
2023-04-16T05:20:28.544Z,83.31
2023-04-16T05:22:56.618Z,83.39
2023-04-16T05:25:24.417Z,83.57
2023-04-16T05:27:52.193Z,83.55
2023-04-16T05:30:19.967Z,83.68
2023-04-16T05:32:48.170Z,83.86
2023-04-16T05:35:17.462Z,83.79
2023-04-16T05:37:45.685Z,83.74
2023-04-16T05:40:14.678Z,83.39
2023-04-16T05:42:42.510Z,83.37
2023-04-16T05:45:11.023Z,83.36
2023-04-16T05:47:38.782Z,82.99
2023-04-16T05:50:07.589Z,82.80
2023-04-16T05:52:35.703Z,82.67
2023-04-16T05:55:05.141Z,82.43
2023-04-16T05:57:33.865Z,82.52
2023-04-16T06:00:01.664Z,82.71
2023-04-16T06:02:31.627Z,82.68
2023-04-16T06:04:59.603Z,82.61
2023-04-16T06:07:27.368Z,82.40
2023-04-16T06:09:55.184Z,81.97
2023-04-16T06:12:23.040Z,81.93
2023-04-16T06:14:50.954Z,82.27
2023-04-16T06:17:19.637Z,82.49
2023-04-16T06:19:47.608Z,82.68
2023-04-16T06:22:15.649Z,82.64
2023-04-16T06:24:43.547Z,82.45
2023-04-16T06:27:11.376Z,81.83
2023-04-16T06:29:41.576Z,81.93
2023-04-16T06:32:09.979Z,81.78
2023-04-16T06:34:39.103Z,81.66
2023-04-16T06:37:09.866Z,81.95
2023-04-16T06:39:38.396Z,81.96
2023-04-16T06:42:06.316Z,82.01
2023-04-16T06:44:35.346Z,82.09
2023-04-16T06:47:03.348Z,82.07
2023-04-16T06:49:31.237Z,81.89
2023-04-16T06:51:59.059Z,81.91
2023-04-16T06:54:26.949Z,82.07
2023-04-16T06:56:54.861Z,82.19
2023-04-16T06:59:22.807Z,82.18
2023-04-16T07:01:52.625Z,82.06
2023-04-16T07:04:21.406Z,82.16
2023-04-16T07:06:49.217Z,81.63
2023-04-16T07:09:18.125Z,81.54
2023-04-16T07:11:47.287Z,81.55
2023-04-16T07:14:15.283Z,81.52
2023-04-16T07:16:43.210Z,81.62
2023-04-16T07:19:11.513Z,81.42
2023-04-16T07:21:39.880Z,81.44
2023-04-16T07:24:07.787Z,81.71
2023-04-16T07:26:35.707Z,81.53
2023-04-16T07:29:03.607Z,81.39
2023-04-16T07:31:31.757Z,81.48
2023-04-16T07:33:59.764Z,80.83
2023-04-16T07:36:28.431Z,80.04
2023-04-16T07:38:56.393Z,80.51
2023-04-16T07:41:24.668Z,80.70
2023-04-16T07:43:52.459Z,81.16
2023-04-16T07:46:20.404Z,81.30
2023-04-16T07:48:48.538Z,80.72
2023-04-16T07:51:16.981Z,80.00
2023-04-16T07:53:44.766Z,79.82
2023-04-16T07:56:12.595Z,79.20
2023-04-16T07:58:40.487Z,79.13
2023-04-16T08:01:08.475Z,79.19
2023-04-16T08:03:36.806Z,78.54
2023-04-16T08:06:08.032Z,77.73
2023-04-16T08:08:35.807Z,77.51
2023-04-16T08:11:04.043Z,75.75
2023-04-16T08:13:33.474Z,75.22
2023-04-16T08:16:08.004Z,74.18
2023-04-16T08:18:37.473Z,75.27
2023-04-16T08:21:07.815Z,74.83
2023-04-16T08:23:38.653Z,74.67
2023-04-16T08:26:07.404Z,73.94
2023-04-16T08:28:35.261Z,74.00
2023-04-16T08:31:03.298Z,72.62
2023-04-16T08:33:31.169Z,70.42
2023-04-16T08:35:58.925Z,70.36
2023-04-16T08:38:27.413Z,71.20
2023-04-16T08:40:58.206Z,71.30
2023-04-16T08:43:26.876Z,70.42
2023-04-16T08:45:57.064Z,68.12
2023-04-16T08:48:25.561Z,69.64
2023-04-16T08:50:55.011Z,68.40
2023-04-16T08:53:36.285Z,68.41
2023-04-16T08:56:06.931Z,67.79
2023-04-16T08:58:36.062Z,67.19
2023-04-16T09:01:04.763Z,67.86
2023-04-16T09:03:36.162Z,65.55
2023-04-16T09:06:05.681Z,64.18
2023-04-16T09:08:36.191Z,63.39
2023-04-16T09:11:04.852Z,64.12
2023-04-16T09:13:33.006Z,63.95
2023-04-16T09:16:01.682Z,63.75
2023-04-16T09:18:31.396Z,65.09
2023-04-16T09:20:59.930Z,64.22
2023-04-16T09:23:29.329Z,62.93
2023-04-16T09:26:00.466Z,63.09
2023-04-16T09:28:43.737Z,63.35
2023-04-16T09:31:21.846Z,63.03
2023-04-16T09:34:09.676Z,61.29
2023-04-16T09:36:37.561Z,61.47
2023-04-16T09:39:05.711Z,61.71
2023-04-16T09:41:39.783Z,61.31
2023-04-16T09:44:07.796Z,61.94
2023-04-16T09:46:41.855Z,61.60
2023-04-16T09:49:19.282Z,61.59
2023-04-16T09:51:54.866Z,62.21
2023-04-16T09:54:26.282Z,61.62
2023-04-16T09:56:57.900Z,61.94
2023-04-16T09:59:31.230Z,62.50
2023-04-16T10:02:15.025Z,62.75
2023-04-16T10:04:49.937Z,61.53
2023-04-16T10:07:19.738Z,60.52
2023-04-16T10:09:49.213Z,61.00
2023-04-16T10:12:17.135Z,60.52
2023-04-16T10:14:46.520Z,60.16
2023-04-16T10:17:16.954Z,60.35
2023-04-16T10:19:46.633Z,61.54
2023-04-16T10:22:18.304Z,63.23
2023-04-16T10:24:47.862Z,64.47
2023-04-16T10:27:17.296Z,64.47
2023-04-16T10:29:46.247Z,65.02
2023-04-16T10:32:14.884Z,65.14
2023-04-16T10:34:43.314Z,65.06
2023-04-16T10:37:11.089Z,65.33
2023-04-16T10:39:38.994Z,65.15
2023-04-16T10:42:08.951Z,64.45
2023-04-16T10:44:36.839Z,63.17
2023-04-16T10:47:12.959Z,62.15
2023-04-16T10:49:44.119Z,62.20
2023-04-16T10:52:19.380Z,62.18
2023-04-16T10:54:50.862Z,60.47
2023-04-16T10:57:20.828Z,60.69
2023-04-16T10:59:49.492Z,60.44
2023-04-16T11:02:19.725Z,59.92
2023-04-16T11:04:50.029Z,59.73
2023-04-16T11:07:22.300Z,60.55
2023-04-16T11:10:06.154Z,62.09
2023-04-16T11:12:47.246Z,62.54
2023-04-16T11:15:19.859Z,62.86
2023-04-16T11:17:51.933Z,62.93
2023-04-16T11:20:28.499Z,62.39
2023-04-16T11:22:59.177Z,62.86
2023-04-16T11:25:30.497Z,62.93
2023-04-16T11:28:01.462Z,62.36
2023-04-16T11:30:37.264Z,62.39
2023-04-16T11:33:11.241Z,62.74
2023-04-16T11:35:41.534Z,63.03
2023-04-16T11:38:09.579Z,63.28
2023-04-16T11:40:37.412Z,63.40
2023-04-16T11:43:17.616Z,62.53
2023-04-16T11:46:20.173Z,62.47
2023-04-16T11:48:55.765Z,62.96
2023-04-16T11:51:24.207Z,62.44
2023-04-16T11:53:54.153Z,62.66
2023-04-16T11:56:34.845Z,63.26
2023-04-16T11:59:23.531Z,62.58
2023-04-16T12:01:55.923Z,62.80
2023-04-16T12:04:27.847Z,63.30
2023-04-16T12:07:24.846Z,63.73
2023-04-16T12:10:07.882Z,63.89
2023-04-16T12:12:35.943Z,63.85
2023-04-16T12:15:04.992Z,64.17
2023-04-16T12:17:35.461Z,64.55
2023-04-16T12:20:08.465Z,64.95
2023-04-16T12:22:39.345Z,64.66
2023-04-16T12:25:12.251Z,64.07
2023-04-16T12:27:54.113Z,62.90
2023-04-16T12:30:26.194Z,62.96
2023-04-16T12:33:18.420Z,61.82
2023-04-16T12:35:46.742Z,62.18
2023-04-16T12:38:17.424Z,62.38
2023-04-16T12:40:45.794Z,62.29
2023-04-16T12:43:14.418Z,61.30
2023-04-16T12:45:42.857Z,62.01
2023-04-16T12:48:11.099Z,62.54
2023-04-16T12:50:40.015Z,63.08
2023-04-16T12:53:07.875Z,62.88
2023-04-16T12:55:35.828Z,60.49
2023-04-16T12:58:03.661Z,58.65
2023-04-16T13:00:31.459Z,59.18
2023-04-16T13:02:59.339Z,60.44
2023-04-16T13:05:27.300Z,62.93
2023-04-16T13:07:55.112Z,62.65
2023-04-16T13:10:23.839Z,63.19
2023-04-16T13:12:51.759Z,63.49
2023-04-16T13:15:19.861Z,63.96
2023-04-16T13:17:48.470Z,63.75
2023-04-16T13:20:16.602Z,64.61
2023-04-16T13:22:44.419Z,64.67
2023-04-16T13:25:12.304Z,65.28
2023-04-16T13:27:40.135Z,64.52
2023-04-16T13:30:08.551Z,64.75
2023-04-16T13:32:36.787Z,65.30
2023-04-16T13:35:05.137Z,65.73
2023-04-16T13:37:32.915Z,66.43
2023-04-16T13:40:00.823Z,66.71
2023-04-16T13:42:28.641Z,66.87
2023-04-16T13:44:58.273Z,67.10
2023-04-16T13:47:26.348Z,67.04
2023-04-16T13:49:54.253Z,67.56
2023-04-16T13:52:22.050Z,67.69
2023-04-16T13:54:49.802Z,67.76
2023-04-16T13:57:18.256Z,68.08
2023-04-16T13:59:49.698Z,67.96
2023-04-16T14:02:18.082Z,67.85
2023-04-16T14:04:46.281Z,67.60
2023-04-16T14:07:15.785Z,67.54
2023-04-16T14:09:44.201Z,67.76
2023-04-16T14:12:12.148Z,67.47
2023-04-16T14:14:39.969Z,67.28
2023-04-16T14:17:07.885Z,67.56
2023-04-16T14:19:35.748Z,67.26
2023-04-16T14:22:03.690Z,66.91
2023-04-16T14:24:31.421Z,65.88
2023-04-16T14:26:59.291Z,66.11
2023-04-16T14:29:27.216Z,66.69
2023-04-16T14:31:55.090Z,66.65
2023-04-16T14:34:22.899Z,67.14
2023-04-16T14:36:52.116Z,67.64
2023-04-16T14:39:20.015Z,67.96
2023-04-16T14:41:47.813Z,67.87
2023-04-16T14:44:15.706Z,68.04
2023-04-16T14:46:44.086Z,68.09
2023-04-16T14:49:12.528Z,68.76
2023-04-16T14:51:41.748Z,69.17
2023-04-16T14:54:10.030Z,69.22
2023-04-16T14:56:38.581Z,69.15
2023-04-16T14:59:11.422Z,69.22
2023-04-16T15:01:40.546Z,69.36
2023-04-16T15:04:09.227Z,69.97
2023-04-16T15:06:38.422Z,69.85
2023-04-16T15:09:07.770Z,70.17
2023-04-16T15:11:35.681Z,70.47
2023-04-16T15:14:03.620Z,70.14
2023-04-16T15:16:31.737Z,69.77
2023-04-16T15:18:59.709Z,69.49
2023-04-16T15:21:28.078Z,69.35
2023-04-16T15:23:55.889Z,69.04
2023-04-16T15:26:24.189Z,69.42
2023-04-16T15:28:52.014Z,68.82
2023-04-16T15:31:21.162Z,68.78
2023-04-16T15:33:49.802Z,69.44
2023-04-16T15:36:17.654Z,70.14
2023-04-16T15:38:47.379Z,70.19
2023-04-16T15:41:18.282Z,70.26
2023-04-16T15:43:46.378Z,69.97
2023-04-16T15:46:15.372Z,70.38
2023-04-16T15:48:43.407Z,70.69
2023-04-16T15:51:14.707Z,71.22
2023-04-16T15:53:44.805Z,71.51
2023-04-16T15:56:12.750Z,71.62
2023-04-16T15:58:53.816Z,71.58
2023-04-16T16:01:24.274Z,71.46
2023-04-16T16:03:52.513Z,71.72
2023-04-16T16:06:21.131Z,72.15
2023-04-16T16:08:50.334Z,72.32
2023-04-16T16:11:18.323Z,72.36
2023-04-16T16:13:46.489Z,72.02
2023-04-16T16:16:15.183Z,72.45
2023-04-16T16:18:43.346Z,72.30
2023-04-16T16:21:11.735Z,72.81
2023-04-16T16:23:40.251Z,72.79
2023-04-16T16:26:17.494Z,73.20
2023-04-16T16:28:46.060Z,73.44
2023-04-16T16:31:14.392Z,73.59
2023-04-16T16:33:42.234Z,74.12
2023-04-16T16:36:12.397Z,74.50
2023-04-16T16:38:41.360Z,74.30
2023-04-16T16:41:09.295Z,74.41
2023-04-16T16:43:39.504Z,74.90
2023-04-16T16:46:07.694Z,74.64
2023-04-16T16:48:39.202Z,74.72
2023-04-16T16:51:15.894Z,75.21
2023-04-16T16:53:47.213Z,75.07
2023-04-16T16:56:15.050Z,75.36
2023-04-16T16:58:43.192Z,75.35
2023-04-16T17:01:11.616Z,75.19
2023-04-16T17:03:42.382Z,75.05
2023-04-16T17:06:11.254Z,75.03
2023-04-16T17:08:39.318Z,75.20
2023-04-16T17:11:09.524Z,75.26
2023-04-16T17:13:37.352Z,75.36
2023-04-16T17:16:05.509Z,75.24
2023-04-16T17:18:34.905Z,75.14
2023-04-16T17:21:05.470Z,75.37
2023-04-16T17:23:33.339Z,75.48
2023-04-16T17:26:01.255Z,75.44
2023-04-16T17:28:29.447Z,75.58
2023-04-16T17:31:01.766Z,75.67
2023-04-16T17:33:29.639Z,75.51
2023-04-16T17:35:57.455Z,75.80
2023-04-16T17:38:35.342Z,75.77
2023-04-16T17:41:03.313Z,75.77
2023-04-16T17:43:31.391Z,76.46
2023-04-16T17:45:59.389Z,76.70
2023-04-16T17:48:27.153Z,76.59
2023-04-16T17:50:55.024Z,76.27
2023-04-16T17:53:23.038Z,75.69
2023-04-16T17:55:56.939Z,75.58
2023-04-16T17:58:26.554Z,75.50
2023-04-16T18:00:54.317Z,76.12
2023-04-16T18:03:22.392Z,76.24
2023-04-16T18:05:50.666Z,76.29
2023-04-16T18:08:18.751Z,76.56
2023-04-16T18:10:46.736Z,76.81
2023-04-16T18:13:16.884Z,76.57
2023-04-16T18:15:44.816Z,76.64
2023-04-16T18:18:13.195Z,76.53
2023-04-16T18:20:41.409Z,76.82
2023-04-16T18:23:12.556Z,76.92
2023-04-16T18:25:40.894Z,77.23
2023-04-16T18:28:09.537Z,77.27
2023-04-16T18:30:40.417Z,77.22
2023-04-16T18:33:34.377Z,77.01
2023-04-16T18:35:56.604Z,77.00
2023-04-16T18:38:24.675Z,77.36
2023-04-16T18:40:52.514Z,77.46
2023-04-16T18:43:20.530Z,77.49
2023-04-16T18:45:48.462Z,77.25
2023-04-16T18:48:16.407Z,77.51
2023-04-16T18:50:46.755Z,77.44
2023-04-16T18:53:14.615Z,77.74
2023-04-16T18:55:42.576Z,77.46
2023-04-16T18:58:10.997Z,77.22
2023-04-16T19:00:38.875Z,77.18
2023-04-16T19:03:07.618Z,76.97
2023-04-16T19:05:35.782Z,76.76
2023-04-16T19:08:03.649Z,76.97
2023-04-16T19:10:34.468Z,77.00
2023-04-16T19:13:02.291Z,76.97
2023-04-16T19:15:32.069Z,76.75
2023-04-16T19:18:01.257Z,76.56
2023-04-16T19:20:29.082Z,76.70
2023-04-16T19:22:56.996Z,76.58
2023-04-16T19:25:24.819Z,76.51
2023-04-16T19:27:52.719Z,76.64
2023-04-16T19:30:20.659Z,76.65
2023-04-16T19:32:48.530Z,76.61
2023-04-16T19:35:16.347Z,76.55
2023-04-16T19:37:44.506Z,76.73
2023-04-16T19:40:12.504Z,76.70
2023-04-16T19:42:40.790Z,76.76
2023-04-16T19:45:08.929Z,76.71
2023-04-16T19:47:36.770Z,76.69
2023-04-16T19:50:05.001Z,76.75
2023-04-16T19:52:37.484Z,76.93
2023-04-16T19:55:07.159Z,76.83
2023-04-16T19:57:35.022Z,76.75
2023-04-16T20:00:02.982Z,76.80
2023-04-16T20:02:31.313Z,76.77
2023-04-16T20:05:02.076Z,76.81
2023-04-16T20:07:30.065Z,76.75
2023-04-16T20:09:58.076Z,76.83
2023-04-16T20:12:26.519Z,76.74
2023-04-16T20:14:54.493Z,76.83
2023-04-16T20:17:22.243Z,76.70
2023-04-16T20:19:51.554Z,76.65
2023-04-16T20:22:19.617Z,76.78
2023-04-16T20:24:49.754Z,76.85
2023-04-16T20:27:19.599Z,76.71
2023-04-16T20:29:47.594Z,76.58
2023-04-16T20:32:15.554Z,76.57
2023-04-16T20:34:43.419Z,76.98
2023-04-16T20:37:11.422Z,77.44
2023-04-16T20:39:42.206Z,76.92
2023-04-16T20:42:13.405Z,76.47
2023-04-16T20:44:41.525Z,76.41
2023-04-16T20:47:15.061Z,76.05
2023-04-16T20:49:47.095Z,75.49
2023-04-16T20:52:17.635Z,75.67
2023-04-16T20:54:45.445Z,75.41
2023-04-16T20:57:13.474Z,75.17
2023-04-16T20:59:41.284Z,75.07
2023-04-16T21:02:09.116Z,75.07
2023-04-16T21:04:37.639Z,75.22
2023-04-16T21:07:05.459Z,75.38
2023-04-16T21:09:33.353Z,75.28
2023-04-16T21:12:01.910Z,75.39
2023-04-16T21:14:29.749Z,75.40
2023-04-16T21:16:57.614Z,75.20
2023-04-16T21:19:27.012Z,75.65
2023-04-16T21:21:54.736Z,75.82
2023-04-16T21:24:22.709Z,76.01
2023-04-16T21:26:50.447Z,75.91
2023-04-16T21:29:18.244Z,75.97
2023-04-16T21:31:46.136Z,75.75
2023-04-16T21:34:14.042Z,75.49
2023-04-16T21:36:41.748Z,75.28
2023-04-16T21:39:09.653Z,75.09
2023-04-16T21:41:37.763Z,75.18
2023-04-16T21:44:05.670Z,75.12
2023-04-16T21:46:33.444Z,75.13
2023-04-16T21:49:01.390Z,75.17
2023-04-16T21:51:29.353Z,75.34
2023-04-16T21:53:57.876Z,75.16
2023-04-16T21:56:26.165Z,75.56
2023-04-16T21:58:53.939Z,75.86
2023-04-16T22:01:21.869Z,76.03
2023-04-16T22:03:52.240Z,75.79
2023-04-16T22:06:20.679Z,74.96
2023-04-16T22:08:50.138Z,74.84
2023-04-16T22:11:18.298Z,74.98
2023-04-16T22:13:47.858Z,74.59
2023-04-16T22:16:15.857Z,74.99
2023-04-16T22:18:43.923Z,75.12
2023-04-16T22:21:11.812Z,75.22
2023-04-16T22:23:39.594Z,75.32
2023-04-16T22:26:09.186Z,76.11
2023-04-16T22:28:36.941Z,76.25
2023-04-16T22:31:05.225Z,75.77
2023-04-16T22:33:32.939Z,75.97
2023-04-16T22:36:01.071Z,76.09
2023-04-16T22:38:28.831Z,76.35
2023-04-16T22:40:56.617Z,76.58
2023-04-16T22:43:24.372Z,76.89
2023-04-16T22:46:06.671Z,77.09
2023-04-16T22:48:38.927Z,77.12
2023-04-16T22:51:09.285Z,77.15
2023-04-16T22:53:37.174Z,77.12
2023-04-16T22:56:05.473Z,77.28
2023-04-16T22:58:33.256Z,77.09
2023-04-16T23:01:01.866Z,77.00
2023-04-16T23:03:29.881Z,76.90
2023-04-16T23:05:57.719Z,76.84
2023-04-16T23:08:25.756Z,76.94
2023-04-16T23:10:53.657Z,77.22
2023-04-16T23:13:21.526Z,77.44
2023-04-16T23:15:49.318Z,77.50
2023-04-16T23:18:17.118Z,77.60
2023-04-16T23:20:44.856Z,77.85
2023-04-16T23:23:13.025Z,77.87
2023-04-16T23:25:42.585Z,78.02
2023-04-16T23:28:10.589Z,78.03
2023-04-16T23:30:38.581Z,78.40
2023-04-16T23:33:06.852Z,78.57
2023-04-16T23:35:34.749Z,78.58
2023-04-16T23:38:03.013Z,78.56
2023-04-16T23:40:31.017Z,78.71
2023-04-16T23:42:58.989Z,78.83
2023-04-16T23:45:26.778Z,78.98
2023-04-16T23:47:54.579Z,79.12
2023-04-16T23:50:22.467Z,79.41
2023-04-16T23:52:50.320Z,79.56
2023-04-16T23:55:18.093Z,79.45
2023-04-16T23:57:45.870Z,79.82
